createdAt,value
2019-02-27T00:00:21.721Z,51.46
2019-02-27T00:05:29.768Z,50.22
2019-02-27T00:10:39.287Z,49.51
2019-02-27T00:15:45.766Z,45.05
2019-02-27T00:20:53.993Z,46.65
2019-02-27T00:26:02.137Z,45.30
2019-02-27T00:31:11.529Z,46.49
2019-02-27T00:36:18.037Z,47.58
2019-02-27T00:41:26.389Z,53.63
2019-02-27T00:46:34.594Z,46.66
2019-02-27T00:51:45.008Z,44.79
2019-02-27T00:56:50.429Z,47.11
2019-02-27T01:01:59.086Z,47.42
2019-02-27T01:07:07.416Z,50.12
2019-02-27T01:12:15.588Z,50.49
2019-02-27T01:17:24.420Z,54.31
2019-02-27T01:22:31.474Z,52.61
2019-02-27T01:27:39.985Z,54.38
2019-02-27T01:32:46.485Z,50.80
2019-02-27T01:37:54.693Z,52.31
2019-02-27T01:43:05.502Z,51.29
2019-02-27T01:48:10.152Z,54.02
2019-02-27T01:53:18.281Z,48.32
2019-02-27T01:58:26.430Z,50.67
2019-02-27T02:03:34.818Z,52.96
2019-02-27T02:08:43.091Z,53.11
2019-02-27T02:13:51.346Z,53.35
2019-02-27T02:18:59.611Z,58.38
2019-02-27T02:24:07.945Z,58.52
2019-02-27T02:29:17.928Z,62.28
2019-02-27T02:34:23.927Z,60.00
2019-02-27T02:39:32.036Z,60.29
2019-02-27T02:44:40.303Z,59.96
2019-02-27T02:49:48.439Z,60.10
2019-02-27T02:54:56.756Z,62.29
2019-02-27T03:00:05.000Z,59.82
2019-02-27T03:05:13.387Z,60.50
2019-02-27T03:10:21.420Z,59.69
2019-02-27T03:15:29.724Z,62.08
2019-02-27T03:20:38.164Z,61.46
2019-02-27T03:25:46.140Z,61.38
2019-02-27T03:30:54.246Z,62.43
2019-02-27T03:36:03.368Z,62.42
2019-02-27T03:41:10.311Z,61.28
2019-02-27T03:46:18.427Z,58.89
2019-02-27T03:51:26.723Z,55.93
2019-02-27T03:56:34.973Z,56.10
2019-02-27T04:01:43.230Z,54.60
2019-02-27T04:06:53.010Z,51.71
2019-02-27T04:11:59.217Z,56.38
2019-02-27T04:17:07.799Z,50.39
2019-02-27T04:22:15.867Z,52.04
2019-02-27T04:27:23.955Z,50.21
2019-02-27T04:32:31.959Z,50.76
2019-02-27T04:37:40.182Z,49.93
2019-02-27T04:42:48.649Z,49.03
2019-02-27T04:47:57.004Z,50.08
2019-02-27T04:53:05.145Z,50.69
2019-02-27T04:58:13.525Z,49.25
2019-02-27T05:03:21.979Z,46.38
2019-02-27T05:08:30.373Z,45.35
2019-02-27T05:13:38.589Z,44.78
2019-02-27T05:18:46.891Z,47.26
2019-02-27T05:23:55.080Z,45.95
2019-02-27T05:29:04.056Z,46.19
2019-02-27T05:34:13.558Z,45.98
2019-02-27T05:39:20.099Z,48.05
2019-02-27T05:44:28.508Z,47.30
2019-02-27T05:49:36.860Z,49.30
2019-02-27T05:54:45.085Z,47.57
2019-02-27T05:59:53.341Z,49.07
2019-02-27T06:05:01.643Z,44.44
2019-02-27T06:10:10.013Z,40.93
2019-02-27T06:15:18.205Z,42.83
2019-02-27T06:20:26.449Z,39.47
2019-02-27T06:25:34.534Z,36.32
2019-02-27T06:30:42.797Z,37.69
2019-02-27T06:35:51.273Z,38.56
2019-02-27T06:40:59.511Z,36.67
2019-02-27T06:46:07.362Z,38.13
2019-02-27T06:51:18.789Z,37.72
2019-02-27T06:56:16.767Z,36.18
2019-02-27T07:01:24.968Z,38.00
2019-02-27T07:06:33.122Z,34.21
2019-02-27T07:11:44.916Z,35.06
2019-02-27T07:16:48.615Z,35.88
2019-02-27T07:21:56.581Z,33.69
2019-02-27T07:27:04.752Z,33.56
2019-02-27T07:32:13.001Z,33.93
2019-02-27T07:37:21.230Z,35.38
2019-02-27T07:42:31.929Z,34.42
2019-02-27T07:47:37.054Z,35.78
2019-02-27T07:52:45.329Z,34.80
2019-02-27T07:57:58.535Z,33.69
2019-02-27T08:03:01.111Z,35.82
2019-02-27T08:08:09.109Z,31.95
2019-02-27T08:13:17.252Z,32.96
2019-02-27T08:18:30.009Z,33.23
2019-02-27T08:23:32.987Z,32.09
2019-02-27T08:28:41.145Z,32.65
2019-02-27T08:33:49.241Z,32.86
2019-02-27T08:38:57.754Z,31.04
2019-02-27T08:44:05.884Z,30.48
2019-02-27T08:49:14.112Z,31.22
2019-02-27T08:54:22.350Z,32.18
2019-02-27T08:59:30.672Z,33.73
2019-02-27T09:04:38.958Z,32.78
2019-02-27T09:09:51.372Z,30.18
2019-02-27T09:14:55.945Z,36.96
2019-02-27T09:20:02.577Z,34.55
2019-02-27T09:25:11.234Z,33.58
2019-02-27T09:30:19.561Z,33.54
2019-02-27T09:35:32.546Z,32.91
2019-02-27T09:40:38.510Z,32.54
2019-02-27T09:45:46.215Z,37.98
2019-02-27T09:50:51.203Z,31.65
2019-02-27T09:55:59.490Z,30.50
2019-02-27T10:01:07.768Z,32.63
2019-02-27T10:06:16.132Z,33.35
2019-02-27T10:11:26.636Z,30.62
2019-02-27T10:16:24.974Z,33.00
2019-02-27T10:21:33.197Z,32.44
2019-02-27T10:26:41.519Z,34.45
2019-02-27T10:31:49.833Z,32.77
2019-02-27T10:36:58.163Z,45.26
2019-02-27T10:42:06.445Z,31.42
2019-02-27T10:47:15.053Z,33.83
2019-02-27T10:52:24.370Z,33.19
2019-02-27T10:57:32.226Z,32.44
2019-02-27T11:02:39.015Z,31.00
2019-02-27T11:07:50.111Z,32.25
2019-02-27T11:12:55.026Z,34.07
2019-02-27T11:18:05.435Z,32.39
2019-02-27T11:23:13.546Z,33.59
2019-02-27T11:28:11.979Z,31.05
2019-02-27T11:33:25.713Z,30.99
2019-02-27T11:38:27.865Z,31.46
2019-02-27T11:43:37.927Z,31.19
2019-02-27T11:48:47.091Z,31.41
2019-02-27T11:53:45.461Z,29.67
2019-02-27T11:58:53.882Z,28.64
2019-02-27T12:04:02.165Z,30.72
2019-02-27T12:09:10.686Z,31.83
2019-02-27T12:14:19.104Z,30.68
2019-02-27T12:19:27.457Z,30.97
2019-02-27T12:24:35.707Z,30.48
2019-02-27T12:29:44.146Z,30.23
2019-02-27T12:34:52.634Z,33.18
2019-02-27T12:40:00.979Z,29.73
2019-02-27T12:45:09.241Z,29.83
2019-02-27T12:50:17.828Z,30.18
2019-02-27T12:55:26.799Z,28.72
2019-02-27T13:00:35.496Z,26.05
2019-02-27T13:05:43.875Z,27.00
2019-02-27T13:10:52.403Z,27.05
2019-02-27T13:16:00.794Z,23.48
2019-02-27T13:21:09.390Z,22.06
2019-02-27T13:26:17.984Z,21.68
2019-02-27T13:31:26.964Z,22.95
2019-02-27T13:36:34.992Z,21.10
2019-02-27T13:41:45.566Z,20.87
2019-02-27T13:46:51.217Z,21.96
2019-02-27T13:52:00.038Z,21.04
2019-02-27T13:57:24.839Z,26.51
2019-02-27T14:02:08.518Z,22.06
2019-02-27T14:07:18.224Z,22.31
2019-02-27T14:12:24.706Z,21.95
2019-02-27T14:17:33.037Z,21.57
2019-02-27T14:22:41.392Z,21.34
2019-02-27T14:27:49.656Z,21.85
2019-02-27T14:32:58.176Z,21.07
2019-02-27T14:38:06.719Z,23.11
2019-02-27T14:43:15.160Z,22.59
2019-02-27T14:48:23.459Z,23.45
2019-02-27T14:53:31.797Z,25.89
2019-02-27T14:58:40.175Z,22.54
2019-02-27T15:03:48.868Z,22.34
2019-02-27T15:09:03.379Z,22.90
2019-02-27T15:14:06.595Z,25.75
2019-02-27T15:19:15.028Z,23.57
2019-02-27T15:24:23.325Z,23.75
2019-02-27T15:29:31.503Z,23.59
2019-02-27T15:34:39.955Z,23.68
2019-02-27T15:39:48.494Z,25.83
2019-02-27T15:44:56.939Z,23.42
2019-02-27T15:50:05.172Z,25.29
2019-02-27T15:55:14.146Z,23.80
2019-02-27T16:00:22.597Z,22.12
2019-02-27T16:05:31.683Z,22.84
2019-02-27T16:10:42.642Z,22.08
2019-02-27T16:15:48.447Z,21.73
2019-02-27T16:20:54.189Z,23.30
2019-02-27T16:26:02.788Z,25.18
2019-02-27T16:31:12.262Z,23.57
2019-02-27T16:36:20.278Z,24.01
2019-02-27T16:41:29.236Z,23.49
2019-02-27T16:46:43.215Z,25.84
2019-02-27T16:51:46.223Z,25.37
2019-02-27T16:56:48.913Z,23.69
2019-02-27T17:01:45.038Z,25.77
2019-02-27T17:07:07.378Z,22.83
2019-02-27T17:11:55.718Z,24.30
2019-02-27T17:17:04.655Z,23.13
2019-02-27T17:22:14.463Z,22.90
2019-02-27T17:27:39.025Z,20.97
2019-02-27T17:32:42.627Z,24.91
2019-02-27T17:37:31.770Z,20.67
2019-02-27T17:42:45.865Z,22.88
2019-02-27T17:47:43.021Z,23.10
2019-02-27T17:52:51.211Z,21.21
2019-02-27T17:58:02.724Z,22.66
2019-02-27T18:03:05.027Z,22.05
2019-02-27T18:08:03.493Z,23.94
2019-02-27T18:13:09.589Z,22.18
2019-02-27T18:18:17.882Z,21.93
2019-02-27T18:23:26.118Z,22.63
2019-02-27T18:28:34.546Z,22.44
2019-02-27T18:33:42.792Z,26.99
2019-02-27T18:38:51.180Z,23.03
2019-02-27T18:44:01.257Z,24.26
2019-02-27T18:49:21.654Z,25.42
2019-02-27T18:54:13.523Z,22.86
2019-02-27T18:59:19.081Z,27.68
2019-02-27T19:04:27.290Z,25.36
2019-02-27T19:09:35.709Z,23.11
2019-02-27T19:14:48.525Z,24.83
2019-02-27T19:19:51.449Z,24.80
2019-02-27T19:24:59.892Z,22.72
2019-02-27T19:30:07.188Z,25.67
2019-02-27T19:35:15.433Z,23.10
2019-02-27T19:40:40.088Z,25.69
2019-02-27T19:45:18.269Z,24.84
2019-02-27T19:50:20.977Z,25.73
2019-02-27T19:55:19.140Z,25.51
2019-02-27T20:00:33.708Z,25.43
2019-02-27T20:05:36.421Z,26.10
2019-02-27T20:10:44.151Z,25.67
2019-02-27T20:15:51.182Z,27.10
2019-02-27T20:21:00.042Z,25.90
2019-02-27T20:26:14.274Z,28.61
2019-02-27T20:31:11.181Z,34.40
2019-02-27T20:36:19.543Z,27.10
2019-02-27T20:41:28.255Z,27.66
2019-02-27T20:46:37.047Z,25.28
2019-02-27T20:51:45.582Z,29.98
2019-02-27T20:56:59.086Z,29.31
2019-02-27T21:01:47.977Z,26.55
2019-02-27T21:06:55.115Z,28.30
2019-02-27T21:12:05.343Z,29.92
2019-02-27T21:17:12.074Z,28.75
2019-02-27T21:22:25.239Z,29.29
2019-02-27T21:27:21.239Z,30.55
2019-02-27T21:32:29.627Z,30.40
2019-02-27T21:37:38.266Z,28.89
2019-02-27T21:42:50.934Z,28.19
2019-02-27T21:47:55.319Z,26.53
2019-02-27T21:53:05.509Z,28.34
2019-02-27T21:58:03.649Z,27.54
2019-02-27T22:03:11.989Z,27.75
2019-02-27T22:08:21.273Z,28.69
2019-02-27T22:13:32.183Z,27.44
2019-02-27T22:18:39.966Z,29.44
2019-02-27T22:23:38.303Z,28.68
2019-02-27T22:28:46.604Z,27.89
2019-02-27T22:33:56.074Z,28.91
2019-02-27T22:39:06.222Z,29.73
2019-02-27T22:44:13.889Z,32.19
2019-02-27T22:49:20.772Z,29.76
2019-02-27T22:54:29.157Z,31.22
2019-02-27T22:59:37.460Z,28.95
2019-02-27T23:04:44.997Z,28.15
2019-02-27T23:09:53.302Z,28.84
2019-02-27T23:15:01.696Z,27.61
2019-02-27T23:20:09.841Z,29.83
2019-02-27T23:25:18.293Z,29.20
2019-02-27T23:30:26.518Z,30.96
2019-02-27T23:35:34.873Z,30.27
2019-02-27T23:40:43.084Z,31.03
2019-02-27T23:45:51.535Z,31.65
2019-02-27T23:50:59.638Z,33.78
2019-02-27T23:56:07.997Z,35.11
